Time;durP1;ratioP1;P1;durP2;ratioP2;P2;SDS_P1;SDS_P2;PMS_P1;PMS_P2;Temp;Humidity;BMP_temperature;BMP_pressure;BME280_temperature;BME280_humidity;BME280_pressure;Samples;Min_cycle;Max_cycle;Signal;HPM_P1;HPM_P2
2021/12/14 00:01:55;;;;;;;11.43;6.32;;;;;;;7.55;97.55;102602.19;5093911;28;20024;-66
2021/12/14 00:04:32;;;;;;;11.27;6.38;;;;;;;7.54;97.66;102600.47;5093725;28;20368;-66
2021/12/14 00:07:01;;;;;;;11.68;6.00;;;;;;;7.52;97.68;102599.78;5093634;28;20020;-66
2021/12/14 00:09:35;;;;;;;13.35;6.68;;;;;;;7.53;97.73;102598.81;5094919;28;20034;-66
2021/12/14 00:17:11;;;;;;;11.35;6.10;;;;;;;7.53;97.75;102586.38;5094743;28;20043;-66
2021/12/14 00:19:37;;;;;;;14.05;6.80;;;;;;;7.53;98.00;102580.22;5094363;28;20031;-66
2021/12/14 00:22:18;;;;;;;12.52;6.15;;;;;;;7.53;97.88;102591.69;5094419;28;20530;-66
2021/12/14 00:24:43;;;;;;;19.95;5.88;;;;;;;7.53;98.28;102606.78;5094541;28;20085;-66
2021/12/14 00:27:11;;;;;;;13.30;5.88;;;;;;;7.54;98.05;102605.78;5094510;28;20035;-66
2021/12/14 00:29:40;;;;;;;11.80;6.07;;;;;;;7.54;98.13;102596.00;5094549;28;20103;-65
2021/12/14 00:32:17;;;;;;;14.50;5.90;;;;;;;7.47;97.96;102587.75;5094377;28;20031;-65
2021/12/14 00:34:43;;;;;;;12.00;5.57;;;;;;;7.54;97.99;102603.13;5094341;28;20024;-66
2021/12/14 00:37:14;;;;;;;11.00;5.32;;;;;;;7.53;97.96;102604.97;5094021;28;20044;-66
2021/12/14 00:39:40;;;;;;;12.25;6.15;;;;;;;7.53;98.18;102606.78;5093905;28;20031;-66
2021/12/14 00:42:06;;;;;;;13.18;6.35;;;;;;;7.52;98.28;102607.72;5094166;28;20107;-66
2021/12/14 00:44:33;;;;;;;11.32;5.82;;;;;;;7.53;98.14;102607.63;5094221;28;20050;-66
2021/12/14 00:46:58;;;;;;;12.38;5.63;;;;;;;7.54;98.28;102616.41;5094152;28;20070;-66
2021/12/14 00:49:24;;;;;;;12.55;5.53;;;;;;;7.54;98.42;102619.06;5094110;28;20028;-66
2021/12/14 00:51:50;;;;;;;9.80;5.55;;;;;;;7.50;98.71;102618.50;5094035;28;20758;-66
2021/12/14 00:54:17;;;;;;;13.25;5.57;;;;;;;7.53;98.46;102628.03;5093866;28;20032;-66
2021/12/14 00:56:44;;;;;;;12.27;6.28;;;;;;;7.52;98.63;102639.59;5094038;28;20415;-66
2021/12/14 00:59:12;;;;;;;12.15;6.10;;;;;;;7.52;98.66;102639.59;5093879;28;20090;-66
2021/12/14 01:01:43;;;;;;;13.02;5.97;;;;;;;7.51;98.79;102644.06;5093738;28;20074;-66
2021/12/14 01:04:18;;;;;;;14.27;6.13;;;;;;;7.51;98.96;102641.41;5092805;28;20031;-66
2021/12/14 01:06:46;;;;;;;13.57;6.10;;;;;;;7.50;98.81;102641.56;5093763;28;20152;-66
2021/12/14 01:09:16;;;;;;;12.63;6.43;;;;;;;7.52;99.04;102642.25;5092492;28;20027;-66
2021/12/14 01:11:46;;;;;;;14.77;6.25;;;;;;;7.50;99.06;102639.75;5092977;28;20032;-66
2021/12/14 01:14:32;;;;;;;14.93;7.63;;;;;;;7.51;99.20;102624.66;5093544;28;20028;-66
2021/12/14 01:17:13;;;;;;;15.95;6.03;;;;;;;7.49;99.16;102623.94;5093624;28;20023;-66
2021/12/14 01:19:42;;;;;;;11.88;5.68;;;;;;;7.30;99.50;102596.31;5093545;28;20062;-66
2021/12/14 01:22:30;;;;;;;12.63;5.93;;;;;;;7.49;99.25;102624.75;5091807;28;20074;-66
2021/12/14 01:25:05;;;;;;;13.45;7.20;;;;;;;7.49;99.13;102623.94;5093478;28;20020;-66
2021/12/14 01:27:54;;;;;;;12.50;6.15;;;;;;;7.42;99.30;102610.38;5092183;28;20110;-66
2021/12/14 01:30:22;;;;;;;10.98;5.05;;;;;;;7.49;99.14;102629.25;5090191;28;20035;-66
2021/12/14 01:32:49;;;;;;;14.55;6.18;;;;;;;7.47;99.09;102619.59;5093164;28;20063;-66
2021/12/14 01:35:19;;;;;;;10.50;5.70;;;;;;;7.41;99.13;102598.03;5093232;28;20063;-65
2021/12/14 01:37:59;;;;;;;12.23;6.03;;;;;;;7.46;99.34;102598.50;5093146;28;20051;-66
2021/12/14 01:40:52;;;;;;;12.30;5.70;;;;;;;7.45;99.07;102600.31;5093329;28;20028;-66
2021/12/14 01:43:15;;;;;;;12.95;6.28;;;;;;;7.44;99.23;102596.00;5092690;28;20035;-65
2021/12/14 01:45:41;;;;;;;13.18;7.43;;;;;;;7.44;99.48;102600.44;5092840;28;20024;-68
2021/12/14 01:48:06;;;;;;;17.60;6.70;;;;;;;7.43;99.43;102601.41;5093211;28;20118;-66
2021/12/14 01:50:38;;;;;;;15.52;6.45;;;;;;;7.42;99.54;102605.88;5093139;28;20024;-66
2021/12/14 01:53:04;;;;;;;13.05;6.53;;;;;;;7.42;99.37;102591.78;5093138;28;20035;-65
2021/12/14 01:55:35;;;;;;;13.77;6.50;;;;;;;7.42;99.60;102597.09;5092989;28;20476;-65
2021/12/14 01:58:05;;;;;;;12.97;6.73;;;;;;;7.40;99.41;102591.06;5093158;28;20122;-66
2021/12/14 02:00:46;;;;;;;12.68;6.25;;;;;;;7.40;99.44;102583.09;5092931;28;20284;-65
2021/12/14 02:03:14;;;;;;;14.88;6.70;;;;;;;7.39;99.54;102584.94;5093046;28;20063;-66
2021/12/14 02:05:45;;;;;;;14.00;5.60;;;;;;;7.38;99.48;102583.22;5092529;28;20043;-66
2021/12/14 02:08:20;;;;;;;12.43;5.88;;;;;;;7.38;99.51;102574.44;5092950;28;20024;-66
2021/12/14 02:10:47;;;;;;;10.70;5.30;;;;;;;7.38;99.41;102574.44;5092817;28;20032;-65
2021/12/14 02:13:20;;;;;;;13.88;6.55;;;;;;;7.37;99.47;102578.06;5092962;28;20020;-65
2021/12/14 02:15:46;;;;;;;11.73;4.75;;;;;;;7.36;99.45;102568.41;5092956;28;20115;-66
2021/12/14 02:18:16;;;;;;;13.55;5.90;;;;;;;7.36;99.43;102563.09;5092738;28;20438;-66
2021/12/14 02:21:08;;;;;;;11.73;5.45;;;;;;;7.36;99.50;102571.06;5092854;28;20024;-66
2021/12/14 02:23:37;;;;;;;12.07;4.85;;;;;;;7.35;99.54;102577.34;5093344;28;20556;-66
2021/12/14 02:26:06;;;;;;;11.07;5.35;;;;;;;7.33;99.63;102581.94;5096737;28;20035;-66
2021/12/14 02:28:32;;;;;;;13.55;6.40;;;;;;;7.32;99.47;102581.13;5096673;28;20581;-66
2021/12/14 02:30:59;;;;;;;12.70;5.53;;;;;;;7.31;99.23;102579.44;5096721;28;20528;-66
2021/12/14 02:33:31;;;;;;;12.77;6.20;;;;;;;7.32;99.50;102583.75;5096602;28;20036;-68
2021/12/14 02:35:59;;;;;;;13.35;5.65;;;;;;;7.31;99.56;102578.56;5096397;28;20516;-66
2021/12/14 02:38:26;;;;;;;14.43;7.13;;;;;;;7.29;99.52;102581.38;5096567;28;20103;-66
2021/12/14 02:40:57;;;;;;;12.98;6.20;;;;;;;7.30;99.35;102575.09;5096371;28;20032;-66
2021/12/14 02:43:41;;;;;;;12.00;5.90;;;;;;;7.31;99.63;102591.84;5095947;28;20024;-66
2021/12/14 02:46:12;;;;;;;13.63;6.38;;;;;;;7.31;99.15;102597.16;5095420;28;20040;-67
2021/12/14 02:48:40;;;;;;;12.70;5.43;;;;;;;7.29;99.08;102585.84;5096457;28;20020;-66
2021/12/14 02:51:12;;;;;;;12.35;5.43;;;;;;;7.23;99.16;102569.50;5096377;28;20080;-68
2021/12/14 02:53:40;;;;;;;12.02;4.93;;;;;;;7.25;99.02;102575.47;5096132;28;20020;-66
2021/12/14 02:56:19;;;;;;;12.00;4.95;;;;;;;7.28;99.20;102565.56;5096252;28;20020;-66
2021/12/14 02:58:47;;;;;;;10.43;5.07;;;;;;;7.26;98.97;102557.78;5096148;28;20038;-66
2021/12/14 03:01:15;;;;;;;7.22;4.07;;;;;;;7.25;99.17;102562.22;5096182;28;20467;-66
2021/12/14 03:03:41;;;;;;;12.13;5.63;;;;;;;7.23;98.88;102560.66;5096240;28;20490;-68
2021/12/14 03:06:10;;;;;;;12.43;6.30;;;;;;;7.22;98.88;102564.31;5096050;28;20016;-66
2021/12/14 03:08:44;;;;;;;10.77;4.47;;;;;;;7.21;98.92;102557.31;5095737;28;20085;-66
2021/12/14 03:11:11;;;;;;;11.60;5.18;;;;;;;7.23;98.92;102560.66;5095905;28;20055;-67
2021/12/14 03:13:47;;;;;;;12.48;5.40;;;;;;;7.23;98.68;102552.69;5096012;28;20060;-66
2021/12/14 03:16:22;;;;;;;12.63;5.40;;;;;;;7.21;98.60;102542.22;5095887;28;20459;-65
2021/12/14 03:18:50;;;;;;;9.85;4.90;;;;;;;7.17;98.50;102540.81;5095916;28;20024;-66
2021/12/14 03:21:20;;;;;;;8.75;4.30;;;;;;;7.17;98.68;102535.50;5095704;28;20024;-66
2021/12/14 03:23:56;;;;;;;9.65;3.88;;;;;;;7.19;98.51;102535.38;5095481;28;20474;-67
2021/12/14 03:26:25;;;;;;;11.88;4.97;;;;;;;7.18;98.45;102542.50;5095365;28;20019;-66
2021/12/14 03:28:53;;;;;;;10.57;4.72;;;;;;;7.18;98.31;102539.03;5095700;28;20024;-68
2021/12/14 03:31:29;;;;;;;7.63;3.97;;;;;;;7.17;98.11;102534.66;5095647;28;20095;-66
2021/12/14 03:34:03;;;;;;;9.50;4.30;;;;;;;7.16;98.15;102530.34;5095522;28;20043;-65
2021/12/14 03:36:34;;;;;;;8.18;4.07;;;;;;;7.14;98.17;102527.81;5094221;28;20552;-67
2021/12/14 03:39:21;;;;;;;12.40;4.35;;;;;;;7.14;98.26;102535.78;5095414;28;20039;-66
2021/12/14 03:41:52;;;;;;;8.38;3.25;;;;;;;7.13;98.10;102520.84;5094068;28;20067;-65
2021/12/14 03:44:22;;;;;;;11.05;3.97;;;;;;;7.11;98.22;102528.09;5095468;28;20611;-66
2021/12/14 03:46:55;;;;;;;9.40;3.78;;;;;;;7.13;98.13;102539.41;5093933;28;20394;-66
2021/12/14 03:49:25;;;;;;;10.18;4.00;;;;;;;7.12;97.97;102548.31;5095243;28;20128;-65
2021/12/14 03:51:51;;;;;;;9.73;4.35;;;;;;;7.11;98.03;102551.13;5095218;28;20024;-66
2021/12/14 03:54:19;;;;;;;11.13;4.07;;;;;;;7.11;98.15;102559.91;5095305;28;20039;-65
2021/12/14 03:56:45;;;;;;;7.80;3.75;;;;;;;7.10;98.16;102571.50;5095064;28;20424;-66
2021/12/14 03:59:11;;;;;;;8.63;4.30;;;;;;;7.07;98.07;102570.91;5095097;28;20390;-66
2021/12/14 04:01:41;;;;;;;11.85;4.45;;;;;;;7.10;98.28;102575.97;5095092;28;20031;-66
2021/12/14 04:04:19;;;;;;;12.20;4.55;;;;;;;7.08;98.22;102586.72;5094952;28;20443;-68
2021/12/14 04:06:56;;;;;;;8.98;4.13;;;;;;;7.09;98.22;102595.50;5094975;28;20129;-66
2021/12/14 04:09:27;;;;;;;11.38;3.95;;;;;;;7.08;98.23;102599.16;5094446;28;20081;-66
2021/12/14 04:11:53;;;;;;;10.23;3.53;;;;;;;7.09;98.12;102606.13;5094787;28;20024;-66
2021/12/14 04:14:19;;;;;;;10.02;3.35;;;;;;;7.08;98.34;102599.16;5094796;28;20090;-66
2021/12/14 04:16:47;;;;;;;11.43;4.57;;;;;;;7.06;98.38;102588.66;5094715;28;20020;-66
2021/12/14 04:19:20;;;;;;;12.23;4.90;;;;;;;7.03;98.55;102587.09;5094651;28;20382;-66
2021/12/14 04:21:46;;;;;;;9.98;4.43;;;;;;;7.00;98.49;102581.22;5094585;28;20081;-66
2021/12/14 04:24:13;;;;;;;12.05;6.88;;;;;;;7.01;98.63;102586.38;5093183;28;20032;-68
2021/12/14 04:26:45;;;;;;;12.98;5.70;;;;;;;7.00;98.45;102579.41;5094090;28;20044;-66
2021/12/14 04:29:12;;;;;;;12.45;4.93;;;;;;;6.98;98.47;102577.84;5094305;28;20085;-66
2021/12/14 04:31:41;;;;;;;11.63;4.85;;;;;;;6.99;98.75;102580.34;5094473;28;20038;-66
2021/12/14 04:34:07;;;;;;;13.52;4.80;;;;;;;6.99;98.73;102584.84;5093182;28;20068;-66
2021/12/14 04:36:33;;;;;;;13.88;5.15;;;;;;;6.95;98.63;102572.81;5094019;28;20055;-66
2021/12/14 04:39:28;;;;;;;14.50;5.88;;;;;;;6.99;98.64;102574.22;5094356;28;20024;-66
2021/12/14 04:53:10;;;;;;;15.85;6.70;;;;;;;6.95;99.05;102563.03;5094175;28;20039;-66
2021/12/14 04:55:40;;;;;;;17.52;7.28;;;;;;;6.94;98.98;102564.03;5093837;28;20028;-66
2021/12/14 04:58:06;;;;;;;16.85;6.00;;;;;;;6.96;98.93;102558.56;5094083;28;20080;-65
2021/12/14 05:00:39;;;;;;;14.57;6.13;;;;;;;6.92;99.00;102559.81;5094050;28;20111;-66
2021/12/14 05:03:15;;;;;;;15.88;4.97;;;;;;;6.93;99.04;102543.75;5094150;28;20036;-66
2021/12/14 05:05:48;;;;;;;15.27;6.93;;;;;;;6.93;98.94;102546.41;5093886;28;20008;-65
2021/12/14 05:10:58;;;;;;;15.15;5.53;;;;;;;6.94;98.93;102557.84;5093509;28;20031;-66
2021/12/14 05:13:29;;;;;;;18.73;7.32;;;;;;;6.91;99.22;102548.34;5093434;28;20024;-65
2021/12/14 05:15:55;;;;;;;16.80;6.05;;;;;;;6.93;99.10;102542.94;5093746;28;20016;-66
2021/12/14 05:18:21;;;;;;;17.02;7.78;;;;;;;6.94;98.93;102548.13;5093625;28;20356;-66
2021/12/14 05:20:48;;;;;;;16.65;5.60;;;;;;;6.94;99.14;102548.13;5093497;28;20040;-66
2021/12/14 05:23:28;;;;;;;14.75;6.28;;;;;;;6.91;99.31;102543.03;5093589;28;20387;-66
2021/12/14 05:25:54;;;;;;;17.00;5.80;;;;;;;6.94;99.31;102547.25;5093502;28;20052;-67
2021/12/14 05:28:21;;;;;;;17.73;6.88;;;;;;;6.93;99.38;102551.72;5093302;28;20542;-68
2021/12/14 05:30:51;;;;;;;14.90;5.93;;;;;;;6.93;99.14;102545.56;5092918;28;20059;-66
2021/12/14 05:33:21;;;;;;;16.42;6.10;;;;;;;6.94;99.29;102550.75;5093536;28;20084;-65
2021/12/14 05:35:49;;;;;;;17.08;6.20;;;;;;;6.95;99.36;102547.13;5093014;28;20020;-65
2021/12/14 05:38:24;;;;;;;19.30;6.65;;;;;;;6.95;99.28;102541.81;5093389;28;20024;-66
2021/12/14 05:43:24;;;;;;;18.45;6.95;;;;;;;6.93;99.26;102541.09;5093342;28;20498;-65
2021/12/14 05:45:53;;;;;;;17.13;7.57;;;;;;;6.95;99.16;102547.13;5093182;28;20367;-66
2021/12/14 05:48:34;;;;;;;19.25;7.93;;;;;;;6.94;99.41;102555.19;5092777;28;20520;-66
2021/12/14 05:51:05;;;;;;;22.15;7.78;;;;;;;6.90;99.35;102551.97;5092841;28;20043;-67
2021/12/14 05:53:41;;;;;;;17.13;6.50;;;;;;;6.94;99.30;102552.56;5092857;28;20020;-66
2021/12/14 05:56:12;;;;;;;16.45;5.95;;;;;;;6.89;99.20;102550.31;5092996;28;20031;-67
2021/12/14 05:58:37;;;;;;;18.53;5.90;;;;;;;6.93;99.26;102561.50;5092587;28;20043;-66
2021/12/14 06:01:07;;;;;;;19.10;7.38;;;;;;;6.92;99.30;102568.63;5093123;28;20375;-66
2021/12/14 06:03:38;;;;;;;17.92;6.93;;;;;;;6.92;99.50;102565.13;5092911;28;20036;-66
2021/12/14 06:06:13;;;;;;;19.25;7.15;;;;;;;6.93;99.39;102572.09;5093075;28;20024;-66
2021/12/14 06:08:39;;;;;;;17.42;7.40;;;;;;;6.92;99.33;102560.66;5092917;28;20024;-65
2021/12/14 06:11:05;;;;;;;18.75;7.60;;;;;;;6.92;99.13;102570.44;5092961;28;20444;-65
2021/12/14 06:13:40;;;;;;;16.85;6.18;;;;;;;6.92;99.31;102568.63;5092559;28;20045;-66
2021/12/14 06:16:06;;;;;;;17.88;6.40;;;;;;;6.93;99.63;102572.09;5092769;28;20467;-66
2021/12/14 06:18:31;;;;;;;20.00;7.38;;;;;;;6.93;99.38;102569.44;5092902;28;20035;-67
2021/12/14 06:20:58;;;;;;;17.50;7.43;;;;;;;6.92;99.31;102576.56;5092787;28;20457;-66
2021/12/14 06:23:25;;;;;;;19.27;8.05;;;;;;;6.92;99.30;102573.09;5092890;28;20036;-66
2021/12/14 06:25:51;;;;;;;20.30;7.88;;;;;;;6.91;99.54;102577.53;5092731;28;20060;-65
2021/12/14 06:28:25;;;;;;;18.38;6.95;;;;;;;6.89;99.32;102579.50;5092792;28;20144;-66
2021/12/14 06:30:50;;;;;;;21.90;9.35;;;;;;;6.89;99.33;102582.13;5092483;28;20032;-66
2021/12/14 06:33:16;;;;;;;20.63;8.50;;;;;;;6.86;99.29;102579.72;5092483;28;20055;-66
2021/12/14 06:35:47;;;;;;;22.70;10.02;;;;;;;6.89;99.24;102587.44;5092445;28;20032;-65
2021/12/14 06:40:53;;;;;;;19.33;6.70;;;;;;;6.84;99.38;102572.88;5092824;28;20106;-65
2021/12/14 06:43:22;;;;;;;18.88;7.65;;;;;;;6.90;99.45;102588.28;5092589;28;20056;-65
2021/12/14 06:45:55;;;;;;;18.83;7.70;;;;;;;6.89;99.38;102582.13;5092691;28;20016;-68
2021/12/14 06:48:29;;;;;;;22.13;9.15;;;;;;;6.89;99.49;102589.22;5092610;28;20116;-65
2021/12/14 06:51:07;;;;;;;19.40;7.22;;;;;;;6.87;99.71;102600.00;5092330;28;20383;-68
2021/12/14 06:53:34;;;;;;;19.52;8.90;;;;;;;6.89;99.61;102603.34;5092535;28;20028;-68
2021/12/14 06:56:03;;;;;;;20.77;8.52;;;;;;;6.89;99.45;102599.84;5092375;28;20032;-68
2021/12/14 06:58:33;;;;;;;19.73;8.35;;;;;;;6.88;99.64;102601.66;5092425;28;20035;-68
2021/12/14 07:01:08;;;;;;;22.00;8.75;;;;;;;6.88;99.44;102609.63;5076363;28;20035;-65
2021/12/14 07:03:41;;;;;;;20.90;7.72;;;;;;;6.89;99.41;102616.63;5088416;28;20040;-65
2021/12/14 07:06:06;;;;;;;23.65;10.00;;;;;;;6.89;99.48;102616.63;5088631;28;20034;-65
2021/12/14 07:08:32;;;;;;;22.70;9.50;;;;;;;6.89;99.52;102613.09;5088779;28;20119;-65
2021/12/14 07:10:58;;;;;;;26.85;10.10;;;;;;;6.87;99.71;102615.91;5090173;28;20028;-65
2021/12/14 07:13:38;;;;;;;21.88;8.88;;;;;;;6.88;99.66;102620.22;5072679;28;20476;-65
2021/12/14 07:16:19;;;;;;;19.75;8.38;;;;;;;6.88;99.83;102620.22;5092063;28;20056;-68
2021/12/14 07:18:47;;;;;;;21.13;10.30;;;;;;;6.88;99.54;102630.00;5092125;28;20047;-67
2021/12/14 07:21:13;;;;;;;19.42;8.65;;;;;;;6.85;99.70;102628.44;5092013;28;20550;-67
2021/12/14 07:23:38;;;;;;;23.88;9.77;;;;;;;6.88;99.75;102638.78;5091928;28;20115;-65
2021/12/14 07:26:10;;;;;;;23.45;10.40;;;;;;;6.88;99.71;102641.44;5093485;28;20016;-65
2021/12/14 07:28:42;;;;;;;20.77;9.68;;;;;;;6.90;99.71;102639.50;5095667;28;20028;-65
2021/12/14 07:31:12;;;;;;;;;;;;;;;6.93;99.58;102638.41;5096046;28;20055;-65
2021/12/14 07:33:44;;;;;;;23.25;9.63;;;;;;;6.91;99.68;102641.19;5095929;28;20006;-65
2021/12/14 07:36:13;;;;;;;22.85;8.63;;;;;;;6.90;99.82;102646.63;5095318;28;20047;-68
2021/12/14 07:38:46;;;;;;;25.63;11.18;;;;;;;6.86;99.44;102647.84;5095456;28;20024;-68
2021/12/14 07:41:19;;;;;;;26.35;11.00;;;;;;;6.91;99.70;102658.91;5095373;28;20020;-68
2021/12/14 07:43:56;;;;;;;25.15;8.38;;;;;;;6.91;99.63;102659.75;5095528;28;20027;-66
2021/12/14 07:46:24;;;;;;;23.88;10.55;;;;;;;6.91;99.80;102664.22;5095343;28;20394;-66
2021/12/14 07:48:53;;;;;;;24.70;10.32;;;;;;;6.92;99.79;102666.75;5095201;28;20020;-66
2021/12/14 07:51:20;;;;;;;26.45;10.00;;;;;;;6.93;99.73;102668.44;5095130;28;20028;-66
2021/12/14 07:54:08;;;;;;;25.33;10.13;;;;;;;6.93;99.95;102670.25;5095201;28;20028;-67
2021/12/14 07:56:41;;;;;;;22.90;9.18;;;;;;;6.94;99.76;102669.25;5091305;28;20048;-66
2021/12/14 07:59:29;;;;;;;26.83;10.30;;;;;;;6.95;99.63;102673.63;5095001;28;20379;-67
2021/12/14 08:02:07;;;;;;;24.80;10.57;;;;;;;6.96;99.76;102676.13;5094652;28;20038;-66
2021/12/14 08:04:34;;;;;;;27.00;11.40;;;;;;;6.97;99.77;102682.28;5094957;28;20126;-66
2021/12/14 08:07:00;;;;;;;24.73;11.48;;;;;;;6.97;99.41;102677.81;5094874;28;20372;-67
2021/12/14 08:09:34;;;;;;;24.10;10.65;;;;;;;6.96;99.69;102681.44;5093683;28;20043;-66
2021/12/14 08:12:02;;;;;;;27.95;10.73;;;;;;;6.98;99.82;102679.50;5094806;28;20039;-66
2021/12/14 08:14:29;;;;;;;24.42;11.30;;;;;;;6.99;99.66;102680.31;5094575;28;20467;-67
2021/12/14 08:17:05;;;;;;;25.13;10.52;;;;;;;7.00;99.59;102676.72;5094611;28;20039;-66
2021/12/14 08:19:36;;;;;;;25.02;11.10;;;;;;;7.00;99.43;102669.59;5094555;28;20034;-69
2021/12/14 08:22:26;;;;;;;26.23;11.23;;;;;;;7.00;99.55;102679.38;5094226;28;20034;-68
2021/12/14 08:24:51;;;;;;;25.27;10.73;;;;;;;6.97;99.49;102671.69;5094352;28;20156;-68
2021/12/14 08:27:26;;;;;;;24.58;9.07;;;;;;;7.03;99.43;102673.81;5094570;28;20057;-68
2021/12/14 08:29:56;;;;;;;25.35;11.35;;;;;;;7.05;99.58;102679.84;5094558;28;20027;-67
2021/12/14 08:32:34;;;;;;;26.20;10.70;;;;;;;7.06;99.35;102678.84;5094435;28;20107;-68
2021/12/14 08:35:03;;;;;;;28.25;12.00;;;;;;;7.09;99.56;102686.56;5094343;28;20076;-68
2021/12/14 08:37:43;;;;;;;25.90;10.38;;;;;;;7.12;99.32;102691.59;5094170;28;20048;-68
2021/12/14 08:40:12;;;;;;;23.05;8.82;;;;;;;7.14;99.29;102691.47;5094392;28;20028;-67
2021/12/14 08:42:49;;;;;;;37.55;13.60;;;;;;;7.15;99.31;102690.50;5094271;28;20056;-67
2021/12/14 08:45:25;;;;;;;23.58;10.10;;;;;;;7.15;99.18;102693.16;5094308;28;20012;-67
2021/12/14 08:48:03;;;;;;;31.70;12.68;;;;;;;7.18;98.98;102688.44;5094072;28;20024;-68
2021/12/14 08:50:36;;;;;;;25.27;10.57;;;;;;;7.20;99.25;102696.25;5094060;28;20114;-67
2021/12/14 08:53:03;;;;;;;39.22;11.57;;;;;;;7.20;99.16;102694.47;5093967;28;20051;-67
2021/12/14 08:55:32;;;;;;;23.02;10.25;;;;;;;7.25;99.15;102697.56;5094053;28;20028;-68
2021/12/14 08:57:59;;;;;;;26.58;12.27;;;;;;;7.28;99.33;102695.63;5094024;28;20111;-67
2021/12/14 09:00:34;;;;;;;24.95;11.80;;;;;;;7.30;98.94;102694.53;5094038;28;20525;-67
2021/12/14 09:03:01;;;;;;;27.17;10.95;;;;;;;7.33;98.96;102688.13;5093797;28;20038;-68
2021/12/14 09:05:33;;;;;;;29.30;13.57;;;;;;;7.35;98.96;102694.97;5093891;28;20027;-67
2021/12/14 09:07:59;;;;;;;24.10;10.50;;;;;;;7.38;98.77;102694.72;5093855;28;20106;-68
2021/12/14 09:10:29;;;;;;;25.77;11.38;;;;;;;7.40;99.02;102703.41;5092460;28;20028;-68
2021/12/14 09:12:59;;;;;;;24.88;10.73;;;;;;;7.44;98.99;102696.88;5093771;28;20106;-70
2021/12/14 09:15:36;;;;;;;28.00;12.60;;;;;;;7.49;98.65;102692.97;5093544;28;20063;-68
2021/12/14 09:18:01;;;;;;;30.83;12.70;;;;;;;7.51;98.53;102694.50;5093515;28;20028;-68
2021/12/14 09:20:33;;;;;;;27.98;13.23;;;;;;;7.57;98.52;102701.09;5093557;28;20031;-68
2021/12/14 09:23:04;;;;;;;27.23;13.43;;;;;;;7.62;98.54;102699.78;5093514;28;20073;-68
2021/12/14 09:25:31;;;;;;;29.73;13.23;;;;;;;7.71;98.09;102703.44;5093496;28;20528;-68
2021/12/14 09:27:59;;;;;;;28.08;15.10;;;;;;;7.74;97.94;102697.03;5092228;28;20032;-68
2021/12/14 09:30:28;;;;;;;29.10;12.45;;;;;;;7.75;97.64;102696.88;5093398;28;20031;-68
2021/12/14 09:32:55;;;;;;;29.73;13.48;;;;;;;7.80;97.64;102707.09;5092755;28;20486;-68
2021/12/14 09:35:25;;;;;;;31.92;13.23;;;;;;;7.85;97.85;102699.59;5093389;28;20149;-68
2021/12/14 09:37:53;;;;;;;32.47;13.60;;;;;;;7.92;97.44;102705.22;5093128;28;20081;-68
2021/12/14 09:40:46;;;;;;;28.88;12.50;;;;;;;7.93;97.06;102706.88;5093353;28;20035;-69
2021/12/14 09:43:12;;;;;;;28.00;12.27;;;;;;;7.95;96.88;102707.59;5089149;28;20063;-68
2021/12/14 09:45:44;;;;;;;26.98;11.70;;;;;;;7.95;97.11;102700.47;5084648;28;21646;-66
2021/12/14 09:48:25;;;;;;;28.50;12.00;;;;;;;7.86;96.76;102691.50;5088038;28;20104;-66
2021/12/14 09:50:51;;;;;;;29.05;14.13;;;;;;;7.92;96.88;102694.59;5087889;28;20031;-66
2021/12/14 09:53:21;;;;;;;28.98;12.88;;;;;;;7.89;97.09;102688.56;5088659;28;20028;-66
2021/12/14 09:55:49;;;;;;;27.40;12.82;;;;;;;7.86;96.98;102690.66;5088975;28;20020;-67
2021/12/14 09:58:31;;;;;;;30.55;12.75;;;;;;;7.83;96.95;102688.25;5087762;28;20023;-67
2021/12/14 10:01:05;;;;;;;26.70;12.77;;;;;;;7.80;97.08;102686.69;5088900;28;20115;-67
2021/12/14 10:03:31;;;;;;;31.05;14.40;;;;;;;7.85;97.29;102697.75;5089178;28;20031;-67
2021/12/14 10:06:00;;;;;;;27.98;11.57;;;;;;;7.88;97.23;102694.84;5088986;28;20027;-67
2021/12/14 10:08:32;;;;;;;28.90;13.30;;;;;;;7.94;97.64;102693.47;5089030;28;20019;-66
2021/12/14 10:11:04;;;;;;;29.13;12.13;;;;;;;7.98;96.89;102688.72;5087693;28;20020;-66
2021/12/14 10:13:32;;;;;;;31.05;14.90;;;;;;;8.09;96.95;102691.28;5088806;28;20069;-66
2021/12/14 10:15:59;;;;;;;28.80;12.65;;;;;;;8.17;97.01;102694.09;5087115;28;20444;-66
2021/12/14 10:18:32;;;;;;;31.48;14.27;;;;;;;8.23;96.81;102703.38;5088405;28;20042;-66
2021/12/14 10:21:13;;;;;;;27.77;12.98;;;;;;;8.24;96.68;102692.59;5088110;28;20425;-67
2021/12/14 10:23:40;;;;;;;30.63;14.40;;;;;;;8.33;96.38;102688.25;5088409;28;20016;-67
2021/12/14 10:26:08;;;;;;;28.33;12.85;;;;;;;8.37;96.05;102699.50;5088451;28;20028;-67
2021/12/14 10:28:37;;;;;;;30.20;13.85;;;;;;;8.37;96.16;102700.31;5088881;28;20118;-67
2021/12/14 10:31:07;;;;;;;28.40;13.48;;;;;;;8.40;96.14;102696.56;5088641;28;20066;-67
2021/12/14 10:33:34;;;;;;;29.73;13.55;;;;;;;8.44;96.17;102696.19;5088185;28;20032;-66
2021/12/14 10:36:16;;;;;;;30.40;14.30;;;;;;;8.45;95.83;102697.84;5087898;28;20509;-69
2021/12/14 10:39:02;;;;;;;31.42;14.68;;;;;;;8.51;96.09;102702.63;5088112;28;20027;-69
2021/12/14 10:44:11;;;;;;;29.65;14.15;;;;;;;8.58;95.30;102710.06;5089206;28;20047;-67
2021/12/14 10:46:45;;;;;;;29.75;14.48;;;;;;;8.60;95.47;102708.09;5090917;28;20447;-65
2021/12/14 10:49:13;;;;;;;27.15;14.07;;;;;;;8.62;95.60;102708.78;5092413;28;20034;-68
2021/12/14 10:51:41;;;;;;;26.85;12.60;;;;;;;8.63;95.39;102700.69;5092361;28;20119;-68
2021/12/14 10:54:13;;;;;;;29.80;14.05;;;;;;;8.64;95.18;102705.00;5094676;28;20024;-68
2021/12/14 10:56:53;;;;;;;33.15;14.48;;;;;;;8.64;95.33;102699.69;5096299;28;20020;-67
2021/12/14 10:59:22;;;;;;;30.98;14.32;;;;;;;8.62;95.27;102693.69;5096356;28;20499;-68
2021/12/14 11:01:50;;;;;;;30.67;13.70;;;;;;;8.63;95.52;102683.88;5096025;28;20050;-68
2021/12/14 11:04:20;;;;;;;30.20;15.27;;;;;;;8.62;95.45;102680.41;5095528;28;20047;-68
2021/12/14 11:06:48;;;;;;;34.17;14.25;;;;;;;8.68;95.22;102689.63;5095823;28;20376;-68
2021/12/14 11:09:40;;;;;;;28.58;12.85;;;;;;;8.71;95.63;102678.72;5095617;28;20031;-67
2021/12/14 11:12:09;;;;;;;31.35;14.23;;;;;;;8.73;95.35;102688.22;5095904;28;20024;-68
2021/12/14 11:14:37;;;;;;;31.02;15.43;;;;;;;8.76;95.31;102687.13;5095796;28;20362;-68
2021/12/14 11:20:03;;;;;;;30.80;12.50;;;;;;;8.78;95.09;102674.53;5095973;28;20043;-68
2021/12/14 11:22:42;;;;;;;28.95;13.45;;;;;;;8.83;95.31;102679.41;5095860;28;20024;-67
2021/12/14 11:25:12;;;;;;;30.35;14.23;;;;;;;8.88;94.70;102669.19;5095687;28;20081;-67
2021/12/14 11:27:44;;;;;;;31.17;15.57;;;;;;;8.89;94.57;102670.88;5095863;28;20107;-68
2021/12/14 11:30:26;;;;;;;34.97;18.13;;;;;;;8.88;94.92;102664.72;5093739;28;20024;-67
2021/12/14 11:33:08;;;;;;;31.58;13.88;;;;;;;8.94;94.76;102668.63;5095433;28;20471;-67
2021/12/14 11:35:40;;;;;;;30.17;13.68;;;;;;;8.93;94.78;102653.63;5095342;28;20020;-67
2021/12/14 11:38:12;;;;;;;32.40;17.48;;;;;;;8.96;94.74;102664.84;5095351;28;20052;-67
2021/12/14 11:40:38;;;;;;;30.70;14.20;;;;;;;9.00;94.69;102660.06;5095400;28;20111;-67
2021/12/14 11:43:15;;;;;;;32.30;14.00;;;;;;;9.04;94.99;102655.28;5095504;28;20028;-67
2021/12/14 11:45:41;;;;;;;29.42;14.50;;;;;;;9.11;94.91;102659.91;5094148;28;20097;-67
2021/12/14 11:48:08;;;;;;;30.20;14.40;;;;;;;9.18;94.45;102654.88;5095151;28;20028;-67
2021/12/14 11:50:42;;;;;;;30.75;14.85;;;;;;;9.27;94.38;102663.81;5095381;28;20040;-67
2021/12/14 11:53:13;;;;;;;29.45;12.98;;;;;;;9.31;94.32;102667.88;5095280;28;20100;-68
2021/12/14 11:55:49;;;;;;;31.60;13.43;;;;;;;9.32;93.85;102658.91;5094584;28;20501;-67
2021/12/14 11:58:35;;;;;;;31.45;15.48;;;;;;;9.32;93.57;102661.56;5095143;28;20421;-67
2021/12/14 12:01:09;;;;;;;34.13;18.58;;;;;;;9.35;93.62;102663.94;5094969;28;20024;-68
2021/12/14 12:03:52;;;;;;;37.70;15.68;;;;;;;9.36;93.73;102660.31;5094702;28;20433;-68
2021/12/14 12:06:43;;;;;;;31.13;15.25;;;;;;;9.35;93.35;102655.94;5095082;28;20024;-68
2021/12/14 12:09:32;;;;;;;30.23;14.85;;;;;;;9.32;93.43;102658.91;5094940;28;20028;-68
2021/12/14 12:12:04;;;;;;;32.90;16.30;;;;;;;9.32;93.59;102662.41;5094817;28;20024;-68